sensor_id;sensor_type;location;lat;lon;timestamp;P1;durP1;ratioP1;P2;durP2;ratioP2
85622;SDS011;76049;43.076;25.632;2024-03-02T00:01:07;24.60;;;14.00;;
85622;SDS011;76049;43.076;25.632;2024-03-02T00:06:23;27.90;;;17.00;;
85622;SDS011;76049;43.076;25.632;2024-03-02T00:11:31;29.30;;;17.60;;
85622;SDS011;76049;43.076;25.632;2024-03-02T00:16:42;27.40;;;16.60;;
85622;SDS011;76049;43.076;25.632;2024-03-02T00:21:49;27.90;;;20.30;;
85622;SDS011;76049;43.076;25.632;2024-03-02T00:26:58;28.50;;;17.40;;
85622;SDS011;76049;43.076;25.632;2024-03-02T00:32:08;23.00;;;14.30;;
85622;SDS011;76049;43.076;25.632;2024-03-02T00:37:21;23.90;;;16.00;;
85622;SDS011;76049;43.076;25.632;2024-03-02T00:42:32;25.70;;;15.10;;
85622;SDS011;76049;43.076;25.632;2024-03-02T00:47:43;25.80;;;15.40;;
85622;SDS011;76049;43.076;25.632;2024-03-02T00:52:50;27.50;;;15.10;;
85622;SDS011;76049;43.076;25.632;2024-03-02T00:57:59;26.40;;;15.80;;
85622;SDS011;76049;43.076;25.632;2024-03-02T01:03:07;24.80;;;15.80;;
85622;SDS011;76049;43.076;25.632;2024-03-02T01:08:15;24.30;;;15.00;;
85622;SDS011;76049;43.076;25.632;2024-03-02T01:13:23;24.10;;;13.50;;
85622;SDS011;76049;43.076;25.632;2024-03-02T01:18:32;28.10;;;18.40;;
85622;SDS011;76049;43.076;25.632;2024-03-02T01:23:43;27.90;;;16.30;;
85622;SDS011;76049;43.076;25.632;2024-03-02T01:28:51;25.50;;;15.30;;
85622;SDS011;76049;43.076;25.632;2024-03-02T01:33:59;22.70;;;12.10;;
85622;SDS011;76049;43.076;25.632;2024-03-02T01:39:07;20.40;;;11.40;;
85622;SDS011;76049;43.076;25.632;2024-03-02T01:44:14;23.60;;;13.60;;
85622;SDS011;76049;43.076;25.632;2024-03-02T01:49:23;20.20;;;10.90;;
85622;SDS011;76049;43.076;25.632;2024-03-02T01:54:31;18.40;;;11.50;;
85622;SDS011;76049;43.076;25.632;2024-03-02T01:59:39;21.20;;;10.40;;
85622;SDS011;76049;43.076;25.632;2024-03-02T02:04:47;19.50;;;13.40;;
85622;SDS011;76049;43.076;25.632;2024-03-02T02:09:55;22.60;;;10.90;;
85622;SDS011;76049;43.076;25.632;2024-03-02T02:15:04;23.60;;;11.90;;
85622;SDS011;76049;43.076;25.632;2024-03-02T02:20:29;22.20;;;12.30;;
85622;SDS011;76049;43.076;25.632;2024-03-02T02:25:37;21.50;;;13.20;;
85622;SDS011;76049;43.076;25.632;2024-03-02T02:30:45;23.60;;;12.40;;
85622;SDS011;76049;43.076;25.632;2024-03-02T02:35:52;29.90;;;16.60;;
85622;SDS011;76049;43.076;25.632;2024-03-02T02:41:01;26.50;;;15.80;;
85622;SDS011;76049;43.076;25.632;2024-03-02T02:46:09;22.90;;;14.30;;
85622;SDS011;76049;43.076;25.632;2024-03-02T02:51:17;25.70;;;13.70;;
85622;SDS011;76049;43.076;25.632;2024-03-02T02:56:24;21.70;;;11.50;;
85622;SDS011;76049;43.076;25.632;2024-03-02T03:01:32;26.50;;;17.40;;
85622;SDS011;76049;43.076;25.632;2024-03-02T03:06:40;22.10;;;14.10;;
85622;SDS011;76049;43.076;25.632;2024-03-02T03:11:48;29.50;;;15.60;;
85622;SDS011;76049;43.076;25.632;2024-03-02T03:16:56;24.60;;;14.20;;
85622;SDS011;76049;43.076;25.632;2024-03-02T03:22:05;24.40;;;14.30;;
85622;SDS011;76049;43.076;25.632;2024-03-02T03:27:13;21.50;;;13.00;;
85622;SDS011;76049;43.076;25.632;2024-03-02T03:32:20;22.90;;;12.60;;
85622;SDS011;76049;43.076;25.632;2024-03-02T03:37:28;20.70;;;12.60;;
85622;SDS011;76049;43.076;25.632;2024-03-02T03:42:37;24.60;;;12.40;;
85622;SDS011;76049;43.076;25.632;2024-03-02T03:47:45;30.40;;;16.30;;
85622;SDS011;76049;43.076;25.632;2024-03-02T03:52:53;25.60;;;15.50;;
85622;SDS011;76049;43.076;25.632;2024-03-02T03:58:00;30.40;;;17.20;;
85622;SDS011;76049;43.076;25.632;2024-03-02T04:03:09;30.10;;;16.10;;
85622;SDS011;76049;43.076;25.632;2024-03-02T04:08:18;22.30;;;12.80;;
85622;SDS011;76049;43.076;25.632;2024-03-02T04:13:27;25.40;;;14.40;;
85622;SDS011;76049;43.076;25.632;2024-03-02T04:18:35;7.60;;;3.70;;
85622;SDS011;76049;43.076;25.632;2024-03-02T04:29:51;21.70;;;15.90;;
85622;SDS011;76049;43.076;25.632;2024-03-02T04:34:59;23.30;;;13.60;;
85622;SDS011;76049;43.076;25.632;2024-03-02T04:40:09;25.90;;;13.70;;
85622;SDS011;76049;43.076;25.632;2024-03-02T04:45:17;22.40;;;13.90;;
85622;SDS011;76049;43.076;25.632;2024-03-02T04:50:25;23.80;;;12.40;;
85622;SDS011;76049;43.076;25.632;2024-03-02T04:55:33;29.10;;;16.50;;
85622;SDS011;76049;43.076;25.632;2024-03-02T05:01:08;24.80;;;16.70;;
85622;SDS011;76049;43.076;25.632;2024-03-02T05:11:16;25.60;;;14.00;;
85622;SDS011;76049;43.076;25.632;2024-03-02T05:16:41;20.60;;;12.00;;
85622;SDS011;76049;43.076;25.632;2024-03-02T05:21:48;22.40;;;13.60;;
85622;SDS011;76049;43.076;25.632;2024-03-02T05:26:56;23.70;;;13.30;;
85622;SDS011;76049;43.076;25.632;2024-03-02T05:32:04;25.20;;;13.90;;
85622;SDS011;76049;43.076;25.632;2024-03-02T05:37:13;29.80;;;17.40;;
85622;SDS011;76049;43.076;25.632;2024-03-02T05:42:20;24.40;;;15.00;;
85622;SDS011;76049;43.076;25.632;2024-03-02T05:47:28;26.60;;;12.90;;
85622;SDS011;76049;43.076;25.632;2024-03-02T05:52:37;22.40;;;12.90;;
85622;SDS011;76049;43.076;25.632;2024-03-02T05:57:45;23.40;;;13.30;;
85622;SDS011;76049;43.076;25.632;2024-03-02T06:03:06;20.40;;;11.30;;
85622;SDS011;76049;43.076;25.632;2024-03-02T06:08:15;24.00;;;14.40;;
85622;SDS011;76049;43.076;25.632;2024-03-02T06:13:23;23.50;;;13.90;;
85622;SDS011;76049;43.076;25.632;2024-03-02T06:18:31;27.10;;;14.10;;
85622;SDS011;76049;43.076;25.632;2024-03-02T06:23:40;25.90;;;13.10;;
85622;SDS011;76049;43.076;25.632;2024-03-02T06:28:48;22.50;;;13.20;;
85622;SDS011;76049;43.076;25.632;2024-03-02T06:34:00;23.10;;;13.30;;
85622;SDS011;76049;43.076;25.632;2024-03-02T06:39:09;24.10;;;13.20;;
85622;SDS011;76049;43.076;25.632;2024-03-02T06:44:17;19.00;;;11.00;;
85622;SDS011;76049;43.076;25.632;2024-03-02T06:49:26;28.80;;;15.60;;
85622;SDS011;76049;43.076;25.632;2024-03-02T06:54:34;25.90;;;13.80;;
85622;SDS011;76049;43.076;25.632;2024-03-02T06:59:42;21.60;;;13.30;;
85622;SDS011;76049;43.076;25.632;2024-03-02T07:04:50;25.30;;;15.70;;
85622;SDS011;76049;43.076;25.632;2024-03-02T07:09:59;43.60;;;23.40;;
85622;SDS011;76049;43.076;25.632;2024-03-02T07:20:41;27.80;;;18.20;;
85622;SDS011;76049;43.076;25.632;2024-03-02T07:25:49;24.20;;;14.40;;
85622;SDS011;76049;43.076;25.632;2024-03-02T07:31:01;25.90;;;15.10;;
85622;SDS011;76049;43.076;25.632;2024-03-02T07:36:09;24.00;;;13.50;;
85622;SDS011;76049;43.076;25.632;2024-03-02T07:41:17;27.00;;;14.70;;
85622;SDS011;76049;43.076;25.632;2024-03-02T07:46:25;26.50;;;14.40;;
85622;SDS011;76049;43.076;25.632;2024-03-02T07:51:33;19.70;;;11.60;;
85622;SDS011;76049;43.076;25.632;2024-03-02T07:56:41;21.70;;;11.20;;
85622;SDS011;76049;43.076;25.632;2024-03-02T08:01:51;23.00;;;12.90;;
85622;SDS011;76049;43.076;25.632;2024-03-02T08:06:59;24.70;;;15.00;;
85622;SDS011;76049;43.076;25.632;2024-03-02T08:12:08;20.60;;;12.40;;
85622;SDS011;76049;43.076;25.632;2024-03-02T08:17:15;18.20;;;10.70;;
85622;SDS011;76049;43.076;25.632;2024-03-02T08:28:47;20.40;;;12.20;;
85622;SDS011;76049;43.076;25.632;2024-03-02T08:33:55;19.10;;;11.20;;
85622;SDS011;76049;43.076;25.632;2024-03-02T08:39:03;18.50;;;10.90;;
85622;SDS011;76049;43.076;25.632;2024-03-02T08:44:19;19.10;;;10.30;;
85622;SDS011;76049;43.076;25.632;2024-03-02T08:49:26;22.50;;;11.60;;
85622;SDS011;76049;43.076;25.632;2024-03-02T08:54:34;18.10;;;11.80;;
85622;SDS011;76049;43.076;25.632;2024-03-02T08:59:43;21.30;;;13.20;;
85622;SDS011;76049;43.076;25.632;2024-03-02T09:04:52;19.00;;;11.40;;
85622;SDS011;76049;43.076;25.632;2024-03-02T09:10:00;20.90;;;11.40;;
85622;SDS011;76049;43.076;25.632;2024-03-02T09:15:09;18.40;;;11.10;;
85622;SDS011;76049;43.076;25.632;2024-03-02T09:20:34;21.00;;;12.30;;
85622;SDS011;76049;43.076;25.632;2024-03-02T09:25:43;20.50;;;11.10;;
85622;SDS011;76049;43.076;25.632;2024-03-02T09:30:51;22.90;;;12.10;;
85622;SDS011;76049;43.076;25.632;2024-03-02T09:36:00;21.00;;;10.90;;
85622;SDS011;76049;43.076;25.632;2024-03-02T09:41:08;22.10;;;12.30;;
85622;SDS011;76049;43.076;25.632;2024-03-02T09:46:16;20.30;;;11.50;;
85622;SDS011;76049;43.076;25.632;2024-03-02T09:51:24;18.80;;;10.80;;
85622;SDS011;76049;43.076;25.632;2024-03-02T09:56:33;16.70;;;10.60;;
85622;SDS011;76049;43.076;25.632;2024-03-02T10:01:41;18.20;;;11.10;;
85622;SDS011;76049;43.076;25.632;2024-03-02T10:07:13;16.30;;;9.60;;
85622;SDS011;76049;43.076;25.632;2024-03-02T10:12:23;17.70;;;9.30;;
85622;SDS011;76049;43.076;25.632;2024-03-02T10:17:32;16.40;;;10.50;;
85622;SDS011;76049;43.076;25.632;2024-03-02T10:22:40;16.50;;;10.20;;
85622;SDS011;76049;43.076;25.632;2024-03-02T10:27:49;16.50;;;11.70;;
85622;SDS011;76049;43.076;25.632;2024-03-02T10:32:58;16.60;;;8.80;;
85622;SDS011;76049;43.076;25.632;2024-03-02T10:38:06;15.90;;;9.40;;
85622;SDS011;76049;43.076;25.632;2024-03-02T10:43:16;19.10;;;8.50;;
85622;SDS011;76049;43.076;25.632;2024-03-02T10:48:26;16.10;;;8.50;;
85622;SDS011;76049;43.076;25.632;2024-03-02T10:53:35;17.40;;;9.30;;
85622;SDS011;76049;43.076;25.632;2024-03-02T10:58:43;16.50;;;10.10;;
85622;SDS011;76049;43.076;25.632;2024-03-02T11:03:52;16.80;;;8.80;;
85622;SDS011;76049;43.076;25.632;2024-03-02T11:09:02;17.10;;;12.30;;
85622;SDS011;76049;43.076;25.632;2024-03-02T11:14:14;19.60;;;8.70;;
85622;SDS011;76049;43.076;25.632;2024-03-02T11:19:27;17.70;;;9.60;;
85622;SDS011;76049;43.076;25.632;2024-03-02T11:24:35;20.00;;;10.00;;
85622;SDS011;76049;43.076;25.632;2024-03-02T11:29:47;16.80;;;11.00;;
85622;SDS011;76049;43.076;25.632;2024-03-02T11:34:59;18.30;;;8.90;;
85622;SDS011;76049;43.076;25.632;2024-03-02T11:40:08;17.00;;;8.60;;
85622;SDS011;76049;43.076;25.632;2024-03-02T11:45:17;16.40;;;9.70;;
85622;SDS011;76049;43.076;25.632;2024-03-02T11:50:33;21.20;;;10.70;;
85622;SDS011;76049;43.076;25.632;2024-03-02T11:55:50;16.30;;;8.30;;
85622;SDS011;76049;43.076;25.632;2024-03-02T12:01:00;22.30;;;11.80;;
85622;SDS011;76049;43.076;25.632;2024-03-02T12:06:08;17.30;;;8.90;;
85622;SDS011;76049;43.076;25.632;2024-03-02T12:11:17;18.70;;;9.40;;
85622;SDS011;76049;43.076;25.632;2024-03-02T12:16:26;21.90;;;9.00;;
85622;SDS011;76049;43.076;25.632;2024-03-02T12:21:34;17.20;;;8.50;;
85622;SDS011;76049;43.076;25.632;2024-03-02T12:26:43;16.70;;;9.80;;
85622;SDS011;76049;43.076;25.632;2024-03-02T12:31:52;18.40;;;8.30;;
85622;SDS011;76049;43.076;25.632;2024-03-02T12:37:01;16.90;;;8.90;;
85622;SDS011;76049;43.076;25.632;2024-03-02T12:42:10;16.30;;;8.20;;
85622;SDS011;76049;43.076;25.632;2024-03-02T12:47:18;15.60;;;8.80;;
85622;SDS011;76049;43.076;25.632;2024-03-02T12:52:26;14.20;;;7.30;;
85622;SDS011;76049;43.076;25.632;2024-03-02T12:57:34;19.30;;;9.70;;
85622;SDS011;76049;43.076;25.632;2024-03-02T13:02:45;13.60;;;6.90;;
85622;SDS011;76049;43.076;25.632;2024-03-02T13:15:55;16.10;;;7.40;;
85622;SDS011;76049;43.076;25.632;2024-03-02T13:21:05;17.00;;;9.60;;
85622;SDS011;76049;43.076;25.632;2024-03-02T13:26:15;13.90;;;8.60;;
85622;SDS011;76049;43.076;25.632;2024-03-02T13:31:23;16.00;;;8.70;;
85622;SDS011;76049;43.076;25.632;2024-03-02T13:36:31;16.20;;;8.60;;
85622;SDS011;76049;43.076;25.632;2024-03-02T13:41:39;14.90;;;9.00;;
85622;SDS011;76049;43.076;25.632;2024-03-02T13:46:47;15.50;;;9.10;;
85622;SDS011;76049;43.076;25.632;2024-03-02T13:51:56;14.00;;;7.20;;
85622;SDS011;76049;43.076;25.632;2024-03-02T13:57:05;15.10;;;7.70;;
85622;SDS011;76049;43.076;25.632;2024-03-02T14:02:13;19.30;;;10.10;;
85622;SDS011;76049;43.076;25.632;2024-03-02T14:07:22;15.40;;;9.70;;
85622;SDS011;76049;43.076;25.632;2024-03-02T14:12:30;19.10;;;10.50;;
85622;SDS011;76049;43.076;25.632;2024-03-02T14:17:38;20.80;;;11.80;;
85622;SDS011;76049;43.076;25.632;2024-03-02T14:22:46;18.70;;;10.70;;
85622;SDS011;76049;43.076;25.632;2024-03-02T14:27:55;19.00;;;10.60;;
85622;SDS011;76049;43.076;25.632;2024-03-02T14:33:03;19.30;;;12.80;;
85622;SDS011;76049;43.076;25.632;2024-03-02T14:38:12;18.20;;;9.70;;
85622;SDS011;76049;43.076;25.632;2024-03-02T14:43:20;17.70;;;10.20;;
85622;SDS011;76049;43.076;25.632;2024-03-02T14:48:29;18.30;;;10.80;;
85622;SDS011;76049;43.076;25.632;2024-03-02T14:53:37;20.50;;;10.80;;
85622;SDS011;76049;43.076;25.632;2024-03-02T14:58:45;18.50;;;10.10;;
85622;SDS011;76049;43.076;25.632;2024-03-02T15:03:54;18.40;;;10.50;;
85622;SDS011;76049;43.076;25.632;2024-03-02T15:09:01;16.60;;;10.20;;
85622;SDS011;76049;43.076;25.632;2024-03-02T15:14:10;20.40;;;12.00;;
85622;SDS011;76049;43.076;25.632;2024-03-02T15:19:21;21.10;;;10.50;;
85622;SDS011;76049;43.076;25.632;2024-03-02T15:24:31;17.30;;;10.40;;
85622;SDS011;76049;43.076;25.632;2024-03-02T15:29:38;20.80;;;12.20;;
85622;SDS011;76049;43.076;25.632;2024-03-02T15:34:46;21.60;;;11.40;;
85622;SDS011;76049;43.076;25.632;2024-03-02T15:39:54;23.70;;;12.90;;
85622;SDS011;76049;43.076;25.632;2024-03-02T15:45:02;21.30;;;11.70;;
85622;SDS011;76049;43.076;25.632;2024-03-02T15:50:13;24.70;;;13.20;;
85622;SDS011;76049;43.076;25.632;2024-03-02T15:55:21;19.90;;;11.20;;
85622;SDS011;76049;43.076;25.632;2024-03-02T16:00:31;23.50;;;13.30;;
85622;SDS011;76049;43.076;25.632;2024-03-02T16:05:40;23.30;;;12.60;;
85622;SDS011;76049;43.076;25.632;2024-03-02T16:10:48;23.80;;;11.80;;
85622;SDS011;76049;43.076;25.632;2024-03-02T16:15:57;17.10;;;9.60;;
85622;SDS011;76049;43.076;25.632;2024-03-02T16:21:07;18.80;;;10.20;;
85622;SDS011;76049;43.076;25.632;2024-03-02T16:26:15;17.00;;;9.70;;
85622;SDS011;76049;43.076;25.632;2024-03-02T16:31:24;18.90;;;10.60;;
85622;SDS011;76049;43.076;25.632;2024-03-02T16:36:31;17.80;;;10.70;;
85622;SDS011;76049;43.076;25.632;2024-03-02T16:41:39;18.20;;;10.00;;
85622;SDS011;76049;43.076;25.632;2024-03-02T16:46:51;18.70;;;10.70;;
85622;SDS011;76049;43.076;25.632;2024-03-02T16:51:59;15.80;;;9.70;;
85622;SDS011;76049;43.076;25.632;2024-03-02T16:57:08;18.30;;;10.40;;
85622;SDS011;76049;43.076;25.632;2024-03-02T17:02:17;15.20;;;9.00;;
85622;SDS011;76049;43.076;25.632;2024-03-02T17:07:25;16.30;;;9.20;;
85622;SDS011;76049;43.076;25.632;2024-03-02T17:12:35;18.50;;;11.60;;
85622;SDS011;76049;43.076;25.632;2024-03-02T17:17:43;16.70;;;9.30;;
85622;SDS011;76049;43.076;25.632;2024-03-02T17:22:52;18.20;;;9.40;;
85622;SDS011;76049;43.076;25.632;2024-03-02T17:34:02;14.10;;;8.20;;
85622;SDS011;76049;43.076;25.632;2024-03-02T17:39:10;13.20;;;7.70;;
85622;SDS011;76049;43.076;25.632;2024-03-02T17:44:18;13.20;;;8.90;;
85622;SDS011;76049;43.076;25.632;2024-03-02T17:49:26;31.20;;;23.70;;
85622;SDS011;76049;43.076;25.632;2024-03-02T17:54:34;24.40;;;18.90;;
85622;SDS011;76049;43.076;25.632;2024-03-02T17:59:42;20.60;;;13.10;;
85622;SDS011;76049;43.076;25.632;2024-03-02T18:04:51;31.00;;;21.30;;
85622;SDS011;76049;43.076;25.632;2024-03-02T18:10:09;33.30;;;26.20;;
85622;SDS011;76049;43.076;25.632;2024-03-02T18:15:20;29.60;;;22.60;;
85622;SDS011;76049;43.076;25.632;2024-03-02T18:20:28;21.90;;;13.90;;
85622;SDS011;76049;43.076;25.632;2024-03-02T18:25:37;24.30;;;18.30;;
85622;SDS011;76049;43.076;25.632;2024-03-02T18:30:50;20.40;;;12.30;;
85622;SDS011;76049;43.076;25.632;2024-03-02T18:35:58;19.80;;;11.80;;
85622;SDS011;76049;43.076;25.632;2024-03-02T18:41:08;16.90;;;9.50;;
85622;SDS011;76049;43.076;25.632;2024-03-02T18:46:18;15.90;;;9.00;;
85622;SDS011;76049;43.076;25.632;2024-03-02T18:51:37;15.90;;;9.20;;
85622;SDS011;76049;43.076;25.632;2024-03-02T18:56:46;16.60;;;9.70;;
85622;SDS011;76049;43.076;25.632;2024-03-02T19:01:54;16.50;;;8.90;;
85622;SDS011;76049;43.076;25.632;2024-03-02T19:07:03;17.60;;;9.50;;
85622;SDS011;76049;43.076;25.632;2024-03-02T19:12:12;13.80;;;8.40;;
85622;SDS011;76049;43.076;25.632;2024-03-02T19:17:19;16.20;;;10.30;;
85622;SDS011;76049;43.076;25.632;2024-03-02T19:22:27;16.10;;;9.00;;
85622;SDS011;76049;43.076;25.632;2024-03-02T19:27:41;18.00;;;11.10;;
85622;SDS011;76049;43.076;25.632;2024-03-02T19:32:50;17.20;;;8.90;;
85622;SDS011;76049;43.076;25.632;2024-03-02T19:37:58;15.10;;;8.60;;
85622;SDS011;76049;43.076;25.632;2024-03-02T19:43:06;15.50;;;9.20;;
85622;SDS011;76049;43.076;25.632;2024-03-02T19:48:15;15.70;;;8.10;;
85622;SDS011;76049;43.076;25.632;2024-03-02T19:53:26;19.90;;;9.80;;
85622;SDS011;76049;43.076;25.632;2024-03-02T19:58:34;18.10;;;12.20;;
85622;SDS011;76049;43.076;25.632;2024-03-02T20:03:42;17.30;;;8.60;;
85622;SDS011;76049;43.076;25.632;2024-03-02T20:08:50;18.10;;;10.80;;
85622;SDS011;76049;43.076;25.632;2024-03-02T20:13:58;18.70;;;9.70;;
85622;SDS011;76049;43.076;25.632;2024-03-02T20:27:01;20.70;;;10.30;;
85622;SDS011;76049;43.076;25.632;2024-03-02T20:32:09;18.20;;;9.20;;
85622;SDS011;76049;43.076;25.632;2024-03-02T20:37:17;20.10;;;9.60;;
85622;SDS011;76049;43.076;25.632;2024-03-02T20:42:28;19.80;;;10.70;;
85622;SDS011;76049;43.076;25.632;2024-03-02T20:47:36;24.40;;;14.80;;
85622;SDS011;76049;43.076;25.632;2024-03-02T20:52:44;23.80;;;12.40;;
85622;SDS011;76049;43.076;25.632;2024-03-02T20:57:52;16.50;;;9.40;;
85622;SDS011;76049;43.076;25.632;2024-03-02T21:03:00;19.30;;;10.70;;
85622;SDS011;76049;43.076;25.632;2024-03-02T21:08:08;19.00;;;10.40;;
85622;SDS011;76049;43.076;25.632;2024-03-02T21:13:17;21.50;;;10.80;;
85622;SDS011;76049;43.076;25.632;2024-03-02T21:18:25;17.30;;;9.20;;
85622;SDS011;76049;43.076;25.632;2024-03-02T21:23:33;22.90;;;12.40;;
85622;SDS011;76049;43.076;25.632;2024-03-02T21:28:42;22.30;;;12.90;;
85622;SDS011;76049;43.076;25.632;2024-03-02T21:33:50;18.60;;;11.40;;
85622;SDS011;76049;43.076;25.632;2024-03-02T21:38:58;16.80;;;10.50;;
85622;SDS011;76049;43.076;25.632;2024-03-02T21:44:06;23.80;;;11.60;;
85622;SDS011;76049;43.076;25.632;2024-03-02T21:49:14;19.30;;;12.10;;
85622;SDS011;76049;43.076;25.632;2024-03-02T21:54:23;23.30;;;11.90;;
85622;SDS011;76049;43.076;25.632;2024-03-02T21:59:31;31.30;;;19.70;;
85622;SDS011;76049;43.076;25.632;2024-03-02T22:04:41;19.90;;;13.20;;
85622;SDS011;76049;43.076;25.632;2024-03-02T22:09:50;6.20;;;3.00;;
85622;SDS011;76049;43.076;25.632;2024-03-02T22:14:58;21.30;;;13.80;;
85622;SDS011;76049;43.076;25.632;2024-03-02T22:20:07;25.50;;;15.60;;
85622;SDS011;76049;43.076;25.632;2024-03-02T22:25:16;39.50;;;23.60;;
85622;SDS011;76049;43.076;25.632;2024-03-02T22:30:24;22.10;;;11.90;;
85622;SDS011;76049;43.076;25.632;2024-03-02T22:35:32;20.50;;;13.10;;
85622;SDS011;76049;43.076;25.632;2024-03-02T22:40:39;20.10;;;10.90;;
85622;SDS011;76049;43.076;25.632;2024-03-02T22:45:47;18.70;;;10.60;;
85622;SDS011;76049;43.076;25.632;2024-03-02T22:50:55;23.90;;;11.80;;
85622;SDS011;76049;43.076;25.632;2024-03-02T22:56:04;24.60;;;11.60;;
85622;SDS011;76049;43.076;25.632;2024-03-02T23:01:11;19.90;;;13.50;;
85622;SDS011;76049;43.076;25.632;2024-03-02T23:06:19;19.30;;;10.60;;
85622;SDS011;76049;43.076;25.632;2024-03-02T23:11:27;23.30;;;13.20;;
85622;SDS011;76049;43.076;25.632;2024-03-02T23:16:35;19.20;;;13.50;;
85622;SDS011;76049;43.076;25.632;2024-03-02T23:21:48;17.40;;;8.00;;
85622;SDS011;76049;43.076;25.632;2024-03-02T23:26:56;18.80;;;11.30;;
85622;SDS011;76049;43.076;25.632;2024-03-02T23:32:03;19.40;;;11.60;;
85622;SDS011;76049;43.076;25.632;2024-03-02T23:37:12;21.10;;;11.20;;
85622;SDS011;76049;43.076;25.632;2024-03-02T23:42:20;22.00;;;11.20;;
85622;SDS011;76049;43.076;25.632;2024-03-02T23:47:28;22.40;;;13.20;;
85622;SDS011;76049;43.076;25.632;2024-03-02T23:52:35;23.90;;;14.10;;
85622;SDS011;76049;43.076;25.632;2024-03-02T23:57:43;24.20;;;12.50;;
